sensor_id;sensor_type;location;lat;lon;timestamp;pressure;altitude;pressure_sealevel;temperature;humidity
75418;BME280;63997;52.112;5.420;2023-11-19T00:02:26;100849.19;;;12.63;100.00
75418;BME280;63997;52.112;5.420;2023-11-19T00:04:53;100846.53;;;12.63;100.00
75418;BME280;63997;52.112;5.420;2023-11-19T00:07:20;100851.38;;;12.61;100.00
75418;BME280;63997;52.112;5.420;2023-11-19T00:09:47;100843.38;;;12.61;100.00
75418;BME280;63997;52.112;5.420;2023-11-19T00:12:13;100838.81;;;12.62;100.00
75418;BME280;63997;52.112;5.420;2023-11-19T00:14:40;100832.72;;;12.61;100.00
75418;BME280;63997;52.112;5.420;2023-11-19T00:17:07;100839.94;;;12.61;100.00
75418;BME280;63997;52.112;5.420;2023-11-19T00:19:33;100839.16;;;12.60;100.00
75418;BME280;63997;52.112;5.420;2023-11-19T00:22:00;100844.16;;;12.62;100.00
75418;BME280;63997;52.112;5.420;2023-11-19T00:24:29;100845.75;;;12.63;100.00
75418;BME280;63997;52.112;5.420;2023-11-19T00:26:56;100845.75;;;12.63;100.00
75418;BME280;63997;52.112;5.420;2023-11-19T00:29:23;100832.72;;;12.61;100.00
75418;BME280;63997;52.112;5.420;2023-11-19T00:31:49;100825.06;;;12.60;100.00
75418;BME280;63997;52.112;5.420;2023-11-19T00:34:16;100831.94;;;12.61;100.00
75418;BME280;63997;52.112;5.420;2023-11-19T00:36:43;100823.59;;;12.62;100.00
75418;BME280;63997;52.112;5.420;2023-11-19T00:39:11;100821.94;;;12.58;100.00
75418;BME280;63997;52.112;5.420;2023-11-19T00:41:37;100825.69;;;12.57;100.00
75418;BME280;63997;52.112;5.420;2023-11-19T00:44:03;100824.16;;;12.56;100.00
75418;BME280;63997;52.112;5.420;2023-11-19T00:46:30;100828.38;;;12.57;100.00
75418;BME280;63997;52.112;5.420;2023-11-19T00:48:57;100826.50;;;12.57;100.00
75418;BME280;63997;52.112;5.420;2023-11-19T00:51:25;100812.81;;;12.59;100.00
75418;BME280;63997;52.112;5.420;2023-11-19T00:53:52;100809.69;;;12.57;100.00
75418;BME280;63997;52.112;5.420;2023-11-19T00:56:21;100800.59;;;12.58;100.00
75418;BME280;63997;52.112;5.420;2023-11-19T00:58:48;100803.28;;;12.58;100.00
75418;BME280;63997;52.112;5.420;2023-11-19T01:01:14;100809.81;;;12.60;100.00
75418;BME280;63997;52.112;5.420;2023-11-19T01:03:41;100814.72;;;12.58;100.00
75418;BME280;63997;52.112;5.420;2023-11-19T01:06:07;100805.59;;;12.59;100.00
75418;BME280;63997;52.112;5.420;2023-11-19T01:08:34;100808.25;;;12.59;100.00
75418;BME280;63997;52.112;5.420;2023-11-19T01:11:03;100810.59;;;12.61;100.00
75418;BME280;63997;52.112;5.420;2023-11-19T01:13:30;100819.50;;;12.65;100.00
75418;BME280;63997;52.112;5.420;2023-11-19T01:15:57;100827.06;;;12.63;100.00
75418;BME280;63997;52.112;5.420;2023-11-19T01:18:23;100816.41;;;12.63;100.00
75418;BME280;63997;52.112;5.420;2023-11-19T01:20:50;100807.28;;;12.64;100.00
75418;BME280;63997;52.112;5.420;2023-11-19T01:23:16;100789.38;;;12.64;100.00
75418;BME280;63997;52.112;5.420;2023-11-19T01:25:42;100791.25;;;12.64;100.00
75418;BME280;63997;52.112;5.420;2023-11-19T01:28:09;100804.59;;;12.64;100.00
75418;BME280;63997;52.112;5.420;2023-11-19T01:30:35;100789.25;;;12.61;100.00
75418;BME280;63997;52.112;5.420;2023-11-19T01:33:02;100778.56;;;12.61;100.00
75418;BME280;63997;52.112;5.420;2023-11-19T01:35:28;100797.25;;;12.61;100.00
75418;BME280;63997;52.112;5.420;2023-11-19T01:37:55;100790.81;;;12.62;100.00
75418;BME280;63997;52.112;5.420;2023-11-19T01:40:21;100781.72;;;12.63;100.00
75418;BME280;63997;52.112;5.420;2023-11-19T01:42:48;100787.03;;;12.63;100.00
75418;BME280;63997;52.112;5.420;2023-11-19T01:45:25;100792.38;;;12.63;100.00
75418;BME280;63997;52.112;5.420;2023-11-19T01:47:53;100797.72;;;12.63;100.00
75418;BME280;63997;52.112;5.420;2023-11-19T01:50:20;100790.81;;;12.62;100.00
75418;BME280;63997;52.112;5.420;2023-11-19T01:52:46;100798.38;;;12.60;100.00
75418;BME280;63997;52.112;5.420;2023-11-19T01:55:13;100791.91;;;12.61;100.00
75418;BME280;63997;52.112;5.420;2023-11-19T01:57:40;100797.59;;;12.59;100.00
75418;BME280;63997;52.112;5.420;2023-11-19T02:00:08;100790.38;;;12.60;100.00
75418;BME280;63997;52.112;5.420;2023-11-19T02:02:40;100799.91;;;12.61;100.00
75418;BME280;63997;52.112;5.420;2023-11-19T02:05:07;100796.81;;;12.59;100.00
75418;BME280;63997;52.112;5.420;2023-11-19T02:07:34;100795.28;;;12.58;100.00
75418;BME280;63997;52.112;5.420;2023-11-19T02:10:00;100790.16;;;12.53;100.00
75418;BME280;63997;52.112;5.420;2023-11-19T02:12:29;100785.81;;;12.48;100.00
75418;BME280;63997;52.112;5.420;2023-11-19T02:14:55;100779.91;;;12.42;100.00
75418;BME280;63997;52.112;5.420;2023-11-19T02:17:29;100776.34;;;12.38;100.00
75418;BME280;63997;52.112;5.420;2023-11-19T02:19:58;100784.69;;;12.37;100.00
75418;BME280;63997;52.112;5.420;2023-11-19T02:22:24;100775.34;;;12.31;100.00
75418;BME280;63997;52.112;5.420;2023-11-19T02:24:54;100787.44;;;12.28;100.00
75418;BME280;63997;52.112;5.420;2023-11-19T02:27:46;100798.78;;;12.25;100.00
75418;BME280;63997;52.112;5.420;2023-11-19T02:30:16;100808.53;;;12.21;100.00
75418;BME280;63997;52.112;5.420;2023-11-19T02:32:42;100808.41;;;12.17;100.00
75418;BME280;63997;52.112;5.420;2023-11-19T02:35:09;100799.53;;;12.13;100.00
75418;BME280;63997;52.112;5.420;2023-11-19T02:37:35;100805.53;;;12.10;100.00
75418;BME280;63997;52.112;5.420;2023-11-19T02:40:02;100801.94;;;12.06;100.00
75418;BME280;63997;52.112;5.420;2023-11-19T02:42:29;100795.75;;;12.02;100.00
75418;BME280;63997;52.112;5.420;2023-11-19T02:44:56;100795.94;;;11.97;100.00
75418;BME280;63997;52.112;5.420;2023-11-19T02:47:22;100793.16;;;11.94;100.00
75418;BME280;63997;52.112;5.420;2023-11-19T02:49:51;100793.81;;;11.90;100.00
75418;BME280;63997;52.112;5.420;2023-11-19T02:52:19;100783.03;;;11.87;100.00
75418;BME280;63997;52.112;5.420;2023-11-19T02:54:46;100781.81;;;11.84;100.00
75418;BME280;63997;52.112;5.420;2023-11-19T02:57:12;100785.91;;;11.82;100.00
75418;BME280;63997;52.112;5.420;2023-11-19T02:59:48;100797.63;;;11.81;100.00
75418;BME280;63997;52.112;5.420;2023-11-19T03:02:15;100791.06;;;11.78;100.00
75418;BME280;63997;52.112;5.420;2023-11-19T03:04:42;100799.72;;;11.75;100.00
75418;BME280;63997;52.112;5.420;2023-11-19T03:07:10;100786.59;;;11.70;100.00
75418;BME280;63997;52.112;5.420;2023-11-19T03:09:36;100789.91;;;11.67;100.00
75418;BME280;63997;52.112;5.420;2023-11-19T03:12:05;100784.91;;;11.65;100.00
75418;BME280;63997;52.112;5.420;2023-11-19T03:14:33;100782.91;;;11.62;100.00
75418;BME280;63997;52.112;5.420;2023-11-19T03:17:00;100801.75;;;11.57;100.00
75418;BME280;63997;52.112;5.420;2023-11-19T03:19:27;100795.53;;;11.53;100.00
75418;BME280;63997;52.112;5.420;2023-11-19T03:21:53;100790.38;;;11.48;100.00
75418;BME280;63997;52.112;5.420;2023-11-19T03:24:20;100800.91;;;11.45;100.00
75418;BME280;63997;52.112;5.420;2023-11-19T03:26:50;100799.53;;;11.38;100.00
75418;BME280;63997;52.112;5.420;2023-11-19T03:29:16;100788.00;;;11.34;100.00
75418;BME280;63997;52.112;5.420;2023-11-19T03:31:43;100794.09;;;11.35;100.00
75418;BME280;63997;52.112;5.420;2023-11-19T03:34:10;100793.97;;;11.31;100.00
75418;BME280;63997;52.112;5.420;2023-11-19T03:36:37;100782.09;;;11.29;100.00
75418;BME280;63997;52.112;5.420;2023-11-19T03:39:03;100779.75;;;11.27;100.00
75418;BME280;63997;52.112;5.420;2023-11-19T03:41:30;100776.19;;;11.23;100.00
75418;BME280;63997;52.112;5.420;2023-11-19T03:44:07;100776.81;;;11.20;100.00
75418;BME280;63997;52.112;5.420;2023-11-19T03:46:33;100753.06;;;11.15;100.00
75418;BME280;63997;52.112;5.420;2023-11-19T03:49:01;100773.44;;;11.11;100.00
75418;BME280;63997;52.112;5.420;2023-11-19T03:51:28;100777.88;;;11.07;100.00
75418;BME280;63997;52.112;5.420;2023-11-19T03:53:54;100780.81;;;11.05;100.00
75418;BME280;63997;52.112;5.420;2023-11-19T03:56:21;100786.38;;;11.00;100.00
75418;BME280;63997;52.112;5.420;2023-11-19T03:58:47;100785.69;;;11.03;100.00
75418;BME280;63997;52.112;5.420;2023-11-19T04:01:14;100788.69;;;11.02;100.00
75418;BME280;63997;52.112;5.420;2023-11-19T04:03:41;100788.69;;;11.02;100.00
75418;BME280;63997;52.112;5.420;2023-11-19T04:06:10;100799.19;;;10.98;100.00
75418;BME280;63997;52.112;5.420;2023-11-19T04:08:37;100791.09;;;10.95;100.00
75418;BME280;63997;52.112;5.420;2023-11-19T04:11:04;100814.56;;;10.93;100.00
75418;BME280;63997;52.112;5.420;2023-11-19T04:13:30;100808.78;;;10.91;100.00
75418;BME280;63997;52.112;5.420;2023-11-19T04:15:57;100809.91;;;10.90;100.00
75418;BME280;63997;52.112;5.420;2023-11-19T04:18:23;100815.22;;;10.90;100.00
75418;BME280;63997;52.112;5.420;2023-11-19T04:20:50;100818.97;;;10.89;100.00
75418;BME280;63997;52.112;5.420;2023-11-19T04:23:17;100816.63;;;10.87;100.00
75418;BME280;63997;52.112;5.420;2023-11-19T04:25:43;100817.88;;;10.90;100.00
75418;BME280;63997;52.112;5.420;2023-11-19T04:28:10;100821.94;;;10.87;100.00
75418;BME280;63997;52.112;5.420;2023-11-19T04:30:37;100814.28;;;10.85;100.00
75418;BME280;63997;52.112;5.420;2023-11-19T04:33:04;100809.59;;;10.82;100.00
75418;BME280;63997;52.112;5.420;2023-11-19T04:35:30;100804.94;;;10.79;100.00
75418;BME280;63997;52.112;5.420;2023-11-19T04:37:57;100801.19;;;10.80;100.00
75418;BME280;63997;52.112;5.420;2023-11-19T04:40:23;100798.69;;;10.75;100.00
75418;BME280;63997;52.112;5.420;2023-11-19T04:42:50;100802.00;;;10.72;100.00
75418;BME280;63997;52.112;5.420;2023-11-19T04:45:16;100800.13;;;10.73;100.00
75418;BME280;63997;52.112;5.420;2023-11-19T04:47:43;100813.09;;;10.74;100.00
75418;BME280;63997;52.112;5.420;2023-11-19T04:50:10;100819.19;;;10.75;100.00
75418;BME280;63997;52.112;5.420;2023-11-19T04:52:38;100809.66;;;10.74;100.00
75418;BME280;63997;52.112;5.420;2023-11-19T04:55:06;100808.41;;;10.71;100.00
75418;BME280;63997;52.112;5.420;2023-11-19T04:57:33;100806.06;;;10.70;100.00
75418;BME280;63997;52.112;5.420;2023-11-19T05:00:00;100793.09;;;10.68;100.00
75418;BME280;63997;52.112;5.420;2023-11-19T05:02:26;100799.53;;;10.67;100.00
75418;BME280;63997;52.112;5.420;2023-11-19T05:04:53;100802.81;;;10.64;100.00
75418;BME280;63997;52.112;5.420;2023-11-19T05:07:19;100804.25;;;10.62;100.00
75418;BME280;63997;52.112;5.420;2023-11-19T05:09:46;100812.53;;;10.60;100.00
75418;BME280;63997;52.112;5.420;2023-11-19T05:12:12;100816.28;;;10.59;100.00
75418;BME280;63997;52.112;5.420;2023-11-19T05:14:39;100824.91;;;10.56;100.00
75418;BME280;63997;52.112;5.420;2023-11-19T05:17:05;100821.78;;;10.54;100.00
75418;BME280;63997;52.112;5.420;2023-11-19T05:19:32;100828.19;;;10.53;100.00
75418;BME280;63997;52.112;5.420;2023-11-19T05:21:58;100816.00;;;10.52;100.00
75418;BME280;63997;52.112;5.420;2023-11-19T05:24:24;100812.91;;;10.50;100.00
75418;BME280;63997;52.112;5.420;2023-11-19T05:26:51;100810.25;;;10.50;100.00
75418;BME280;63997;52.112;5.420;2023-11-19T05:29:18;100810.53;;;10.48;100.00
75418;BME280;63997;52.112;5.420;2023-11-19T05:31:44;100794.75;;;10.43;100.00
75418;BME280;63997;52.112;5.420;2023-11-19T05:34:11;100797.41;;;10.43;100.00
75418;BME280;63997;52.112;5.420;2023-11-19T05:36:38;100814.78;;;10.41;100.00
75418;BME280;63997;52.112;5.420;2023-11-19T05:39:05;100809.47;;;10.41;100.00
75418;BME280;63997;52.112;5.420;2023-11-19T05:41:32;100815.13;;;10.39;100.00
75418;BME280;63997;52.112;5.420;2023-11-19T05:43:58;100818.88;;;10.38;100.00
75418;BME280;63997;52.112;5.420;2023-11-19T05:46:25;100813.25;;;10.40;100.00
75418;BME280;63997;52.112;5.420;2023-11-19T05:48:53;100811.69;;;10.39;100.00
75418;BME280;63997;52.112;5.420;2023-11-19T05:51:20;100819.19;;;10.37;100.00
75418;BME280;63997;52.112;5.420;2023-11-19T05:53:47;100821.38;;;10.35;100.00
75418;BME280;63997;52.112;5.420;2023-11-19T05:56:16;100814.03;;;10.31;100.00
75418;BME280;63997;52.112;5.420;2023-11-19T05:58:47;100823.59;;;10.32;100.00
75418;BME280;63997;52.112;5.420;2023-11-19T06:01:15;100805.59;;;10.29;100.00
75418;BME280;63997;52.112;5.420;2023-11-19T06:03:42;100815.13;;;10.30;100.00
75418;BME280;63997;52.112;5.420;2023-11-19T06:06:09;100812.47;;;10.30;100.00
75418;BME280;63997;52.112;5.420;2023-11-19T06:08:36;100810.91;;;10.29;100.00
75418;BME280;63997;52.112;5.420;2023-11-19T06:11:03;100818.13;;;10.29;100.00
75418;BME280;63997;52.112;5.420;2023-11-19T06:13:30;100811.25;;;10.28;100.00
75418;BME280;63997;52.112;5.420;2023-11-19T06:15:57;100809.38;;;10.28;100.00
75418;BME280;63997;52.112;5.420;2023-11-19T06:18:23;100801.41;;;10.28;100.00
75418;BME280;63997;52.112;5.420;2023-11-19T06:20:50;100807.34;;;10.25;100.00
75418;BME280;63997;52.112;5.420;2023-11-19T06:23:16;100813.41;;;10.26;100.00
75418;BME280;63997;52.112;5.420;2023-11-19T06:25:43;100808.72;;;10.23;100.00
75418;BME280;63997;52.112;5.420;2023-11-19T06:28:09;100820.47;;;10.22;100.00
75418;BME280;63997;52.112;5.420;2023-11-19T06:30:36;100819.69;;;10.21;100.00
75418;BME280;63997;52.112;5.420;2023-11-19T06:33:02;100820.47;;;10.22;100.00
75418;BME280;63997;52.112;5.420;2023-11-19T06:35:30;100818.41;;;10.19;100.00
75418;BME280;63997;52.112;5.420;2023-11-19T06:38:03;100830.94;;;10.18;100.00
75418;BME280;63997;52.112;5.420;2023-11-19T06:40:33;100831.25;;;10.17;100.00
75418;BME280;63997;52.112;5.420;2023-11-19T06:43:01;100826.41;;;10.19;100.00
75418;BME280;63997;52.112;5.420;2023-11-19T06:45:30;100836.69;;;10.20;100.00
75418;BME280;63997;52.112;5.420;2023-11-19T06:47:56;100841.09;;;10.16;100.00
75418;BME280;63997;52.112;5.420;2023-11-19T06:50:23;100844.06;;;10.15;100.00
75418;BME280;63997;52.112;5.420;2023-11-19T06:52:50;100844.84;;;10.15;100.00
75418;BME280;63997;52.112;5.420;2023-11-19T06:55:16;100848.59;;;10.14;100.00
75418;BME280;63997;52.112;5.420;2023-11-19T06:57:42;100847.03;;;10.13;100.00
75418;BME280;63997;52.112;5.420;2023-11-19T07:00:09;100851.75;;;10.16;100.00
75418;BME280;63997;52.112;5.420;2023-11-19T07:02:37;100852.81;;;10.15;100.00
75418;BME280;63997;52.112;5.420;2023-11-19T07:05:04;100855.47;;;10.15;100.00
75418;BME280;63997;52.112;5.420;2023-11-19T07:07:31;100859.38;;;10.18;100.00
75418;BME280;63997;52.112;5.420;2023-11-19T07:09:59;100862.03;;;10.18;100.00
75418;BME280;63997;52.112;5.420;2023-11-19T07:12:25;100862.50;;;10.20;100.00
75418;BME280;63997;52.112;5.420;2023-11-19T07:14:54;100863.94;;;10.17;100.00
75418;BME280;63997;52.112;5.420;2023-11-19T07:17:21;100857.97;;;10.20;100.00
75418;BME280;63997;52.112;5.420;2023-11-19T07:19:49;100866.41;;;10.22;100.00
75418;BME280;63997;52.112;5.420;2023-11-19T07:22:16;100868.00;;;10.23;100.00
75418;BME280;63997;52.112;5.420;2023-11-19T07:24:43;100872.22;;;10.24;100.00
75418;BME280;63997;52.112;5.420;2023-11-19T07:27:10;100876.44;;;10.25;100.00
75418;BME280;63997;52.112;5.420;2023-11-19T07:29:36;100877.38;;;10.29;100.00
75418;BME280;63997;52.112;5.420;2023-11-19T07:32:04;100883.63;;;10.33;100.00
75418;BME280;63997;52.112;5.420;2023-11-19T07:34:31;100887.84;;;10.35;100.00
75418;BME280;63997;52.112;5.420;2023-11-19T07:36:58;100886.75;;;10.36;100.00
75418;BME280;63997;52.112;5.420;2023-11-19T07:39:29;100884.53;;;10.38;100.00
75418;BME280;63997;52.112;5.420;2023-11-19T07:41:55;100879.22;;;10.38;100.00
75418;BME280;63997;52.112;5.420;2023-11-19T07:44:22;100879.22;;;10.38;100.00
75418;BME280;63997;52.112;5.420;2023-11-19T07:46:48;100884.53;;;10.38;100.00
75418;BME280;63997;52.112;5.420;2023-11-19T07:49:15;100893.00;;;10.40;100.00
75418;BME280;63997;52.112;5.420;2023-11-19T07:51:41;100882.81;;;10.42;100.00
75418;BME280;63997;52.112;5.420;2023-11-19T07:54:08;100884.06;;;10.44;100.00
75418;BME280;63997;52.112;5.420;2023-11-19T07:56:35;100886.88;;;10.48;100.00
75418;BME280;63997;52.112;5.420;2023-11-19T07:59:04;100878.72;;;10.53;100.00
75418;BME280;63997;52.112;5.420;2023-11-19T08:01:30;100878.09;;;10.56;100.00
75418;BME280;63997;52.112;5.420;2023-11-19T08:03:57;100873.25;;;10.58;100.00
75418;BME280;63997;52.112;5.420;2023-11-19T08:06:25;100874.78;;;10.59;100.00
75418;BME280;63997;52.112;5.420;2023-11-19T08:08:52;100878.66;;;10.70;100.00
75418;BME280;63997;52.112;5.420;2023-11-19T08:11:19;100874.06;;;10.88;100.00
75418;BME280;63997;52.112;5.420;2023-11-19T08:13:46;100884.66;;;10.97;100.00
75418;BME280;63997;52.112;5.420;2023-11-19T08:16:13;100879.50;;;11.00;100.00
75418;BME280;63997;52.112;5.420;2023-11-19T08:18:42;100884.66;;;10.97;100.00
75418;BME280;63997;52.112;5.420;2023-11-19T08:21:09;100884.53;;;10.93;100.00
75418;BME280;63997;52.112;5.420;2023-11-19T08:23:36;100884.22;;;10.95;100.00
75418;BME280;63997;52.112;5.420;2023-11-19T08:26:02;100882.47;;;10.99;100.00
75418;BME280;63997;52.112;5.420;2023-11-19T08:28:29;100874.97;;;11.01;100.00
75418;BME280;63997;52.112;5.420;2023-11-19T08:30:57;100883.13;;;10.96;100.00
75418;BME280;63997;52.112;5.420;2023-11-19T08:33:26;100885.13;;;10.99;100.00
75418;BME280;63997;52.112;5.420;2023-11-19T08:35:52;100883.06;;;11.04;100.00
75418;BME280;63997;52.112;5.420;2023-11-19T08:38:19;100886.81;;;11.12;100.00
75418;BME280;63997;52.112;5.420;2023-11-19T08:40:48;100894.31;;;11.10;100.00
75418;BME280;63997;52.112;5.420;2023-11-19T08:43:15;100891.13;;;11.17;100.00
75418;BME280;63997;52.112;5.420;2023-11-19T08:45:42;100892.22;;;11.24;100.00
75418;BME280;63997;52.112;5.420;2023-11-19T08:48:09;100900.97;;;11.25;100.00
75418;BME280;63997;52.112;5.420;2023-11-19T08:50:35;100895.66;;;11.25;100.00
75418;BME280;63997;52.112;5.420;2023-11-19T08:53:02;100903.78;;;11.28;100.00
75418;BME280;63997;52.112;5.420;2023-11-19T08:55:28;100909.13;;;11.28;100.00
75418;BME280;63997;52.112;5.420;2023-11-19T08:57:55;100898.47;;;11.28;100.00
75418;BME280;63997;52.112;5.420;2023-11-19T09:00:21;100897.47;;;11.33;100.00
75418;BME280;63997;52.112;5.420;2023-11-19T09:02:48;100901.66;;;11.43;100.00
75418;BME280;63997;52.112;5.420;2023-11-19T09:05:14;100899.78;;;11.64;100.00
75418;BME280;63997;52.112;5.420;2023-11-19T09:07:41;100900.97;;;11.75;100.00
75418;BME280;63997;52.112;5.420;2023-11-19T09:10:07;100886.41;;;11.73;100.00
75418;BME280;63997;52.112;5.420;2023-11-19T09:12:35;100894.59;;;11.68;100.00
75418;BME280;63997;52.112;5.420;2023-11-19T09:15:01;100906.69;;;11.65;100.00
75418;BME280;63997;52.112;5.420;2023-11-19T09:17:28;100897.91;;;11.64;100.00
75418;BME280;63997;52.112;5.420;2023-11-19T09:19:54;100896.47;;;11.67;100.00
75418;BME280;63997;52.112;5.420;2023-11-19T09:22:21;100888.16;;;11.69;100.00
75418;BME280;63997;52.112;5.420;2023-11-19T09:24:47;100898.06;;;11.68;100.00
75418;BME280;63997;52.112;5.420;2023-11-19T09:27:14;100894.13;;;11.65;100.00
75418;BME280;63997;52.112;5.420;2023-11-19T09:29:41;100890.25;;;11.63;100.00
75418;BME280;63997;52.112;5.420;2023-11-19T09:32:07;100895.56;;;11.63;100.00
75418;BME280;63997;52.112;5.420;2023-11-19T09:34:34;100894.81;;;11.62;100.00
75418;BME280;63997;52.112;5.420;2023-11-19T09:37:00;100892.13;;;11.62;100.00
75418;BME280;63997;52.112;5.420;2023-11-19T09:39:27;100894.47;;;11.64;100.00
75418;BME280;63997;52.112;5.420;2023-11-19T09:41:54;100896.47;;;11.67;100.00
75418;BME280;63997;52.112;5.420;2023-11-19T09:44:20;100894.66;;;11.80;100.00
75418;BME280;63997;52.112;5.420;2023-11-19T09:46:47;100893.50;;;11.89;100.00
75418;BME280;63997;52.112;5.420;2023-11-19T09:49:18;100887.97;;;11.95;100.00
75418;BME280;63997;52.112;5.420;2023-11-19T09:52:01;100903.53;;;11.93;100.00
75418;BME280;63997;52.112;5.420;2023-11-19T09:54:28;100883.31;;;11.91;100.00
75418;BME280;63997;52.112;5.420;2023-11-19T09:56:57;100882.97;;;11.93;100.00
75418;BME280;63997;52.112;5.420;2023-11-19T09:59:32;100886.09;;;11.95;99.92
75418;BME280;63997;52.112;5.420;2023-11-19T10:01:59;100879.22;;;11.94;99.68
75418;BME280;63997;52.112;5.420;2023-11-19T10:04:29;100879.00;;;11.99;99.77
75418;BME280;63997;52.112;5.420;2023-11-19T10:06:57;100876.84;;;12.13;99.86
75418;BME280;63997;52.112;5.420;2023-11-19T10:09:23;100880.47;;;12.30;99.57
75418;BME280;63997;52.112;5.420;2023-11-19T10:11:50;100876.78;;;12.34;99.21
75418;BME280;63997;52.112;5.420;2023-11-19T10:14:19;100879.38;;;12.43;98.05
75418;BME280;63997;52.112;5.420;2023-11-19T10:16:49;100868.50;;;12.60;97.94
75418;BME280;63997;52.112;5.420;2023-11-19T10:19:19;100864.06;;;12.64;96.94
75418;BME280;63997;52.112;5.420;2023-11-19T10:21:46;100863.66;;;12.75;96.63
75418;BME280;63997;52.112;5.420;2023-11-19T10:24:13;100856.28;;;12.84;96.36
75418;BME280;63997;52.112;5.420;2023-11-19T10:26:56;100853.41;;;12.89;95.06
75418;BME280;63997;52.112;5.420;2023-11-19T10:29:23;100854.75;;;12.95;95.28
75418;BME280;63997;52.112;5.420;2023-11-19T10:31:57;100852.84;;;12.95;94.89
75418;BME280;63997;52.112;5.420;2023-11-19T10:34:43;100867.66;;;12.93;94.05
75418;BME280;63997;52.112;5.420;2023-11-19T10:37:27;100858.19;;;12.95;94.28
75418;BME280;63997;52.112;5.420;2023-11-19T10:39:54;100851.09;;;12.87;92.98
75418;BME280;63997;52.112;5.420;2023-11-19T10:42:21;100856.41;;;12.87;92.91
75418;BME280;63997;52.112;5.420;2023-11-19T10:44:48;100847.72;;;12.90;93.27
75418;BME280;63997;52.112;5.420;2023-11-19T10:47:15;100842.06;;;12.92;93.39
75418;BME280;63997;52.112;5.420;2023-11-19T10:49:45;100842.28;;;12.99;92.95
75418;BME280;63997;52.112;5.420;2023-11-19T10:52:17;100846.28;;;13.05;93.02
75418;BME280;63997;52.112;5.420;2023-11-19T10:54:50;100844.28;;;13.14;93.18
75418;BME280;63997;52.112;5.420;2023-11-19T10:57:21;100858.06;;;13.16;93.83
75418;BME280;63997;52.112;5.420;2023-11-19T10:59:52;100851.41;;;13.22;92.99
75418;BME280;63997;52.112;5.420;2023-11-19T11:02:24;100841.75;;;13.30;93.03
75418;BME280;63997;52.112;5.420;2023-11-19T11:04:52;100849.06;;;13.33;91.97
75418;BME280;63997;52.112;5.420;2023-11-19T11:07:21;100843.28;;;13.31;92.01
75418;BME280;63997;52.112;5.420;2023-11-19T11:10:02;100861.63;;;13.33;91.73
75418;BME280;63997;52.112;5.420;2023-11-19T11:12:34;100859.09;;;13.36;91.57
75418;BME280;63997;52.112;5.420;2023-11-19T11:15:04;100862.38;;;13.45;92.11
75418;BME280;63997;52.112;5.420;2023-11-19T11:17:33;100858.16;;;13.44;91.64
75418;BME280;63997;52.112;5.420;2023-11-19T11:20:00;100859.94;;;13.40;90.75
75418;BME280;63997;52.112;5.420;2023-11-19T11:22:28;100857.75;;;13.30;90.53
75418;BME280;63997;52.112;5.420;2023-11-19T11:27:43;100850.19;;;13.20;90.14
75418;BME280;63997;52.112;5.420;2023-11-19T11:33:10;100851.53;;;13.14;91.30
75418;BME280;63997;52.112;5.420;2023-11-19T11:36:07;100854.97;;;13.27;91.83
75418;BME280;63997;52.112;5.420;2023-11-19T11:38:40;100846.97;;;13.27;91.49
75418;BME280;63997;52.112;5.420;2023-11-19T11:43:48;100849.72;;;13.18;91.01
75418;BME280;63997;52.112;5.420;2023-11-19T11:49:03;100849.72;;;13.18;91.71
75418;BME280;63997;52.112;5.420;2023-11-19T11:57:14;100840.16;;;13.17;91.29
75418;BME280;63997;52.112;5.420;2023-11-19T12:02:12;100843.28;;;13.19;91.49
75418;BME280;63997;52.112;5.420;2023-11-19T12:04:39;100834.47;;;13.18;91.59
75418;BME280;63997;52.112;5.420;2023-11-19T12:07:23;100836.72;;;13.16;91.55
75418;BME280;63997;52.112;5.420;2023-11-19T12:10:05;100830.47;;;13.12;91.68
75418;BME280;63997;52.112;5.420;2023-11-19T12:12:34;100825.34;;;13.07;91.27
75418;BME280;63997;52.112;5.420;2023-11-19T12:15:03;100821.81;;;13.03;91.10
75418;BME280;63997;52.112;5.420;2023-11-19T12:20:05;100825.03;;;13.09;91.29
75418;BME280;63997;52.112;5.420;2023-11-19T12:22:38;100825.13;;;13.12;91.84
75418;BME280;63997;52.112;5.420;2023-11-19T12:25:06;100820.03;;;13.07;91.31
75418;BME280;63997;52.112;5.420;2023-11-19T12:27:33;100822.81;;;12.98;90.62
75418;BME280;63997;52.112;5.420;2023-11-19T12:30:03;100826.84;;;12.92;91.03
75418;BME280;63997;52.112;5.420;2023-11-19T12:32:40;100828.38;;;12.93;91.82
75418;BME280;63997;52.112;5.420;2023-11-19T12:35:10;100833.28;;;12.91;91.78
75418;BME280;63997;52.112;5.420;2023-11-19T12:37:44;100833.16;;;12.88;91.57
75418;BME280;63997;52.112;5.420;2023-11-19T12:42:39;100831.97;;;12.85;91.88
75418;BME280;63997;52.112;5.420;2023-11-19T12:45:06;100838.16;;;12.89;91.91
75418;BME280;63997;52.112;5.420;2023-11-19T12:47:32;100824.59;;;12.94;92.43
75418;BME280;63997;52.112;5.420;2023-11-19T12:49:59;100832.38;;;13.00;92.37
75418;BME280;63997;52.112;5.420;2023-11-19T12:52:25;100824.38;;;13.00;91.83
75418;BME280;63997;52.112;5.420;2023-11-19T12:54:52;100826.28;;;12.99;91.69
75418;BME280;63997;52.112;5.420;2023-11-19T12:57:19;100833.50;;;12.98;92.05
75418;BME280;63997;52.112;5.420;2023-11-19T12:59:55;100837.72;;;13.00;91.88
75418;BME280;63997;52.112;5.420;2023-11-19T13:02:23;100829.72;;;13.00;92.14
75418;BME280;63997;52.112;5.420;2023-11-19T13:04:49;100826.28;;;12.99;92.35
75418;BME280;63997;52.112;5.420;2023-11-19T13:07:20;100831.50;;;12.95;92.06
75418;BME280;63997;52.112;5.420;2023-11-19T13:09:47;100822.84;;;12.86;92.66
75418;BME280;63997;52.112;5.420;2023-11-19T13:12:14;100826.50;;;12.82;93.55